Terminal Aerodrome Forecast
Issued by NWS

Home | Current Version | Previous Version | Text Only | Print | Product List | Glossary On
Versions: 1 2 3 4 5 6 7 8 9 10 11 12 13 14 15 16 17 18 19 20 21 22 23 24 25 26
000
FTUS41 KRNK 261129
TAFLWB
TAF
KLWB 261129Z 2612/2712 12004KT P6SM OVC060
     FM261700 16008KT 4SM -SHRA OVC025
     FM262300 15006KT 5SM -SHRA OVC040
     FM270000 15005KT 6SM -SHRA OVC025
     FM270500 17004KT P6SM -SHRA BKN010
     FM270800 18004KT P6SM VCSH BKN008=

USA.gov is the U.S. government's official web portal to all federal, state and local government web resources and services.